TRD weather

Trondheim Airport Værnes
Trondheim, Nord-Trøndelag, Norway

Public forecast

Using degrees Celsius for public forecast. Weather courtesy of forecast.io.

Current aviation weather report (METAR) for Trondheim Airport Værnes

Retrieved 2019/10/15 10:20 UTC (0 seconds ago):

ENVA 151020Z 10006KT CAVOK 03/M01 Q1015 NOSIG RMK WIND 670FT 10007KT

Aviation forecast (TAF) for Trondheim Airport Værnes

Retrieved 2019/10/15 06:57 UTC (3 hours ago):

TAF ENVA 150500Z 1506/1606 09005KT CAVOK